createdAt,value
2023-01-20T00:00:34.018Z,37.67
2023-01-20T00:03:20.025Z,36.83
2023-01-20T00:06:06.084Z,36.90
2023-01-20T00:08:52.937Z,35.17
2023-01-20T00:11:39.253Z,38.83
2023-01-20T00:14:25.705Z,34.50
2023-01-20T00:17:11.776Z,32.05
2023-01-20T00:19:57.917Z,31.70
2023-01-20T00:22:43.914Z,32.80
2023-01-20T00:25:30.259Z,33.65
2023-01-20T00:28:18.054Z,34.47
2023-01-20T00:31:21.322Z,36.83
2023-01-20T00:34:07.478Z,32.67
2023-01-20T00:36:53.463Z,32.80
2023-01-20T00:39:39.769Z,32.35
2023-01-20T00:42:25.983Z,32.17
2023-01-20T00:45:12.585Z,30.92
2023-01-20T00:47:58.942Z,28.40
2023-01-20T00:50:45.062Z,33.95
2023-01-20T00:53:31.414Z,30.23
2023-01-20T00:56:17.614Z,30.70
2023-01-20T00:59:03.738Z,29.48
2023-01-20T01:01:49.865Z,26.10
2023-01-20T01:04:36.442Z,26.20
2023-01-20T01:07:22.297Z,28.40
2023-01-20T01:10:08.511Z,26.98
2023-01-20T01:12:54.853Z,26.33
2023-01-20T01:15:41.032Z,24.55
2023-01-20T01:18:27.246Z,25.83
2023-01-20T01:21:14.916Z,25.23
2023-01-20T01:24:00.944Z,24.38
2023-01-20T01:26:47.275Z,24.65
2023-01-20T01:29:33.448Z,23.67
2023-01-20T01:32:20.598Z,22.75
2023-01-20T01:35:07.075Z,21.63
2023-01-20T01:37:53.791Z,21.27
2023-01-20T01:40:39.897Z,20.83
2023-01-20T01:43:34.041Z,20.00
2023-01-20T01:46:35.950Z,20.95
2023-01-20T01:49:25.830Z,19.95
2023-01-20T01:52:11.815Z,20.55
2023-01-20T01:54:58.716Z,20.77
2023-01-20T01:57:44.934Z,19.27
2023-01-20T02:00:31.116Z,18.65
2023-01-20T02:03:17.189Z,20.30
2023-01-20T02:06:03.306Z,18.60
2023-01-20T02:08:49.671Z,19.67
2023-01-20T02:11:48.829Z,19.77
2023-01-20T02:14:46.615Z,19.67
2023-01-20T02:17:34.721Z,20.00
2023-01-20T02:20:44.081Z,19.45
2023-01-20T02:23:30.456Z,21.50
2023-01-20T02:26:31.667Z,21.92
2023-01-20T02:29:27.382Z,23.33
2023-01-20T02:32:25.483Z,23.10
2023-01-20T02:35:24.995Z,25.10
2023-01-20T02:38:26.300Z,26.08
2023-01-20T02:41:21.865Z,30.83
2023-01-20T02:44:11.001Z,29.95
2023-01-20T02:47:04.243Z,30.45
2023-01-20T02:49:59.254Z,32.28
2023-01-20T02:52:51.613Z,35.05
2023-01-20T02:55:40.542Z,27.95
2023-01-20T02:58:29.831Z,32.25
2023-01-20T03:01:25.508Z,33.30
2023-01-20T03:04:13.981Z,38.53
2023-01-20T03:07:01.115Z,47.25
2023-01-20T03:09:49.291Z,45.13
2023-01-20T03:12:45.130Z,45.65
2023-01-20T03:15:38.804Z,42.08
2023-01-20T03:21:11.480Z,42.33
2023-01-20T03:24:00.921Z,42.70
2023-01-20T03:26:47.288Z,39.20
2023-01-20T03:29:33.304Z,34.83
2023-01-20T03:32:22.824Z,31.23
2023-01-20T03:35:09.468Z,30.88
2023-01-20T03:37:56.397Z,32.55
2023-01-20T03:41:00.623Z,33.17
2023-01-20T03:43:59.874Z,34.72
2023-01-20T03:46:48.566Z,34.00
2023-01-20T03:49:37.928Z,34.72
2023-01-20T03:52:47.884Z,36.40
2023-01-20T03:55:41.830Z,35.53
2023-01-20T03:58:30.931Z,40.33
2023-01-20T04:01:19.217Z,38.70
2023-01-20T04:04:09.266Z,39.67
2023-01-20T04:06:55.557Z,41.00
2023-01-20T04:09:45.305Z,40.88
2023-01-20T04:12:31.334Z,39.55
2023-01-20T04:15:18.032Z,36.88
2023-01-20T04:18:13.995Z,40.85
2023-01-20T04:21:04.076Z,37.30
2023-01-20T04:23:59.892Z,35.33
2023-01-20T04:26:46.211Z,35.25
2023-01-20T04:29:32.495Z,36.10
2023-01-20T04:32:18.643Z,35.28
2023-01-20T04:35:04.852Z,35.53
2023-01-20T04:37:50.977Z,35.22
2023-01-20T04:40:37.045Z,34.05
2023-01-20T04:43:23.090Z,33.95
2023-01-20T04:46:09.441Z,33.80
2023-01-20T04:48:55.499Z,32.92
2023-01-20T04:51:41.863Z,29.33
2023-01-20T04:54:28.248Z,30.42
2023-01-20T04:57:14.383Z,34.65
2023-01-20T05:00:00.532Z,36.83
2023-01-20T05:02:47.359Z,37.72
2023-01-20T05:05:34.101Z,35.83
2023-01-20T05:08:20.733Z,36.65
2023-01-20T05:11:07.580Z,37.38
2023-01-20T05:13:53.642Z,36.05
2023-01-20T05:16:39.799Z,34.70
2023-01-20T05:19:25.843Z,32.28
2023-01-20T05:22:11.925Z,35.95
2023-01-20T05:24:58.439Z,38.60
2023-01-20T05:27:45.152Z,39.45
2023-01-20T05:30:31.439Z,45.10
2023-01-20T05:33:17.778Z,53.88
2023-01-20T05:36:07.783Z,53.05
2023-01-20T05:38:55.081Z,54.13
2023-01-20T05:41:41.351Z,53.17
2023-01-20T05:44:27.674Z,51.90
2023-01-20T05:47:13.787Z,48.50
2023-01-20T05:49:59.743Z,49.05
2023-01-20T05:52:47.982Z,48.90
2023-01-20T05:55:35.448Z,47.58
2023-01-20T05:58:21.730Z,49.38
2023-01-20T06:01:09.471Z,49.10
2023-01-20T06:03:55.703Z,48.55
2023-01-20T06:06:41.798Z,43.90
2023-01-20T06:09:27.932Z,43.33
2023-01-20T06:12:13.995Z,37.55
2023-01-20T06:15:00.305Z,32.08
2023-01-20T06:17:46.452Z,23.48
2023-01-20T06:20:32.667Z,21.00
2023-01-20T06:23:18.741Z,17.88
2023-01-20T06:26:06.541Z,17.60
2023-01-20T06:28:53.781Z,16.63
2023-01-20T06:31:40.269Z,15.63
2023-01-20T06:34:26.283Z,16.00
2023-01-20T06:37:12.451Z,14.85
2023-01-20T06:39:58.750Z,14.88
2023-01-20T06:42:44.960Z,15.23
2023-01-20T06:45:31.316Z,14.43
2023-01-20T06:48:17.605Z,13.20
2023-01-20T06:51:07.808Z,13.18
2023-01-20T06:53:54.180Z,13.02
2023-01-20T06:56:40.351Z,13.73
2023-01-20T06:59:26.563Z,14.10
2023-01-20T07:02:15.839Z,14.48
2023-01-20T07:05:02.738Z,14.15
2023-01-20T07:07:49.137Z,14.60
2023-01-20T07:10:35.418Z,14.02
2023-01-20T07:13:21.669Z,12.43
2023-01-20T07:16:10.664Z,13.05
2023-01-20T07:18:57.798Z,12.95
2023-01-20T07:21:43.977Z,13.50
2023-01-20T07:24:30.193Z,13.13
2023-01-20T07:27:16.416Z,12.70
2023-01-20T07:30:02.642Z,12.27
2023-01-20T07:32:48.945Z,11.63
2023-01-20T07:35:34.894Z,12.30
2023-01-20T07:38:21.042Z,12.00
2023-01-20T07:41:08.633Z,13.32
2023-01-20T07:43:55.199Z,12.48
2023-01-20T07:46:41.471Z,12.45
2023-01-20T07:49:27.829Z,11.82
2023-01-20T07:52:13.817Z,12.98
2023-01-20T07:55:00.178Z,12.75
2023-01-20T07:57:46.193Z,12.27
2023-01-20T08:00:32.361Z,13.00
2023-01-20T08:03:18.577Z,13.05
2023-01-20T08:06:05.833Z,12.93
2023-01-20T08:08:52.233Z,12.80
2023-01-20T08:11:39.419Z,12.60
2023-01-20T08:14:25.814Z,12.57
2023-01-20T08:17:12.007Z,12.68
2023-01-20T08:19:58.271Z,11.82
2023-01-20T08:22:44.386Z,12.10
2023-01-20T08:25:30.537Z,11.57
2023-01-20T08:28:16.865Z,12.25
2023-01-20T08:31:08.139Z,11.77
2023-01-20T08:33:55.586Z,12.18
2023-01-20T08:36:42.293Z,11.98
2023-01-20T08:39:28.795Z,12.27
2023-01-20T08:42:14.686Z,13.02
2023-01-20T08:45:00.976Z,12.25
2023-01-20T08:47:47.257Z,12.20
2023-01-20T08:50:33.707Z,11.57
2023-01-20T08:53:19.886Z,12.05
2023-01-20T08:56:06.194Z,12.10
2023-01-20T08:58:54.076Z,12.40
2023-01-20T09:01:42.297Z,11.50
2023-01-20T09:04:28.385Z,11.98
2023-01-20T09:07:14.509Z,10.65
2023-01-20T09:10:00.940Z,11.48
2023-01-20T09:12:47.881Z,11.23
2023-01-20T09:15:34.067Z,11.00
2023-01-20T09:18:20.359Z,10.20
2023-01-20T09:21:06.900Z,10.27
2023-01-20T09:23:53.425Z,9.52
2023-01-20T09:26:39.826Z,9.23
2023-01-20T09:29:26.096Z,9.48
2023-01-20T09:32:13.819Z,9.75
2023-01-20T09:35:00.165Z,9.43
2023-01-20T09:38:12.416Z,8.82
2023-01-20T09:41:17.636Z,8.40
2023-01-20T09:44:07.002Z,8.82
2023-01-20T09:47:21.324Z,7.47
2023-01-20T09:50:32.294Z,8.70
2023-01-20T09:53:26.156Z,7.50
2023-01-20T09:56:18.030Z,6.90
2023-01-20T09:59:13.557Z,6.30
2023-01-20T10:02:03.289Z,7.00
2023-01-20T10:04:53.467Z,6.80
2023-01-20T10:07:43.055Z,6.53
2023-01-20T10:10:29.416Z,5.60
2023-01-20T10:13:37.113Z,6.00
2023-01-20T10:16:45.590Z,5.32
2023-01-20T10:19:53.041Z,5.13
2023-01-20T10:22:49.169Z,5.28
2023-01-20T10:25:40.464Z,5.07
2023-01-20T10:28:31.959Z,5.03
2023-01-20T10:31:22.626Z,5.05
2023-01-20T10:34:12.802Z,4.82
2023-01-20T10:37:06.464Z,5.40
2023-01-20T10:39:57.847Z,5.03
2023-01-20T10:42:49.393Z,5.32
2023-01-20T10:45:55.205Z,5.53
2023-01-20T10:49:00.315Z,5.53
2023-01-20T10:52:00.089Z,5.10
2023-01-20T10:54:49.215Z,5.75
2023-01-20T10:57:35.484Z,5.70
2023-01-20T11:00:24.304Z,5.93
2023-01-20T11:03:15.044Z,5.80
2023-01-20T11:06:01.706Z,5.85
2023-01-20T11:08:49.319Z,6.00
2023-01-20T11:11:35.698Z,5.97
2023-01-20T11:14:22.062Z,5.63
2023-01-20T11:17:09.514Z,5.25
2023-01-20T11:19:57.003Z,5.40
2023-01-20T11:22:46.121Z,5.07
2023-01-20T11:25:32.910Z,5.07
2023-01-20T11:28:20.377Z,5.43
2023-01-20T11:31:06.982Z,5.00
2023-01-20T11:33:57.758Z,5.20
2023-01-20T11:36:46.152Z,4.50
2023-01-20T11:39:33.992Z,5.50
2023-01-20T11:42:25.212Z,4.75
2023-01-20T11:45:23.538Z,4.95
2023-01-20T11:48:21.766Z,4.60
2023-01-20T11:51:17.980Z,4.90
2023-01-20T11:54:08.497Z,5.20
2023-01-20T11:57:04.773Z,5.40
2023-01-20T11:59:52.112Z,5.82
2023-01-20T12:02:38.728Z,4.10
2023-01-20T12:05:44.219Z,4.82
2023-01-20T12:08:30.486Z,5.03
2023-01-20T12:15:03.089Z,4.28
2023-01-20T12:17:55.335Z,5.07
2023-01-20T12:20:56.712Z,4.80
2023-01-20T12:23:49.141Z,4.90
2023-01-20T12:26:36.345Z,4.38
2023-01-20T12:29:44.934Z,4.55
2023-01-20T12:32:33.328Z,4.65
2023-01-20T12:35:20.149Z,4.53
2023-01-20T12:38:09.878Z,4.35
2023-01-20T12:40:57.129Z,4.03
2023-01-20T12:44:06.532Z,4.18
2023-01-20T12:47:00.863Z,4.72
2023-01-20T12:50:06.169Z,5.25
2023-01-20T12:52:52.772Z,5.30
2023-01-20T12:55:42.431Z,6.25
2023-01-20T12:58:28.461Z,6.15
2023-01-20T13:01:16.896Z,5.55
2023-01-20T13:04:03.072Z,4.82
2023-01-20T13:07:05.086Z,4.57
2023-01-20T13:09:54.675Z,4.68
2023-01-20T13:12:41.297Z,4.57
2023-01-20T13:15:27.629Z,4.70
2023-01-20T13:18:24.285Z,5.43
2023-01-20T13:21:18.919Z,5.50
2023-01-20T13:24:06.480Z,5.15
2023-01-20T13:26:53.252Z,5.53
2023-01-20T13:29:52.027Z,6.07
2023-01-20T13:32:39.723Z,6.18
2023-01-20T13:35:27.596Z,6.47
2023-01-20T13:38:24.826Z,7.07
2023-01-20T13:41:11.396Z,7.20
2023-01-20T13:43:57.947Z,7.57
2023-01-20T13:46:45.608Z,7.43
2023-01-20T13:49:51.674Z,7.93
2023-01-20T13:52:53.254Z,7.97
2023-01-20T13:55:45.364Z,9.02
2023-01-20T13:58:33.510Z,12.13
2023-01-20T14:01:20.817Z,9.55
2023-01-20T14:04:15.236Z,9.80
2023-01-20T14:07:04.712Z,9.48
2023-01-20T14:10:12.822Z,9.02
2023-01-20T14:12:59.239Z,10.32
2023-01-20T14:15:49.064Z,12.40
2023-01-20T14:18:35.582Z,12.25
2023-01-20T14:21:24.375Z,13.15
2023-01-20T14:24:37.156Z,10.80
2023-01-20T14:27:29.483Z,12.88
2023-01-20T14:30:20.329Z,11.48
2023-01-20T14:33:09.223Z,13.63
2023-01-20T14:35:55.190Z,13.60
2023-01-20T14:38:56.122Z,12.52
2023-01-20T14:41:47.955Z,17.60
2023-01-20T14:44:34.702Z,15.52
2023-01-20T14:47:21.755Z,14.40
2023-01-20T14:50:07.942Z,18.70
2023-01-20T14:52:54.737Z,15.73
2023-01-20T14:55:43.395Z,23.05
2023-01-20T14:58:30.707Z,22.70
2023-01-20T15:01:26.433Z,18.02
2023-01-20T15:04:13.102Z,16.98
2023-01-20T15:06:59.597Z,12.25
2023-01-20T15:09:51.896Z,14.60
2023-01-20T15:12:53.716Z,15.27
2023-01-20T15:15:40.026Z,13.85
2023-01-20T15:18:27.299Z,15.88
2023-01-20T15:21:35.946Z,15.00
2023-01-20T15:24:22.980Z,18.50
2023-01-20T15:27:28.847Z,14.90
2023-01-20T15:30:21.191Z,16.05
2023-01-20T15:33:09.536Z,15.50
2023-01-20T15:36:00.360Z,16.23
2023-01-20T15:38:47.015Z,14.55
2023-01-20T15:41:33.120Z,14.68
2023-01-20T15:44:19.256Z,14.07
2023-01-20T15:47:26.162Z,12.65
2023-01-20T15:50:16.874Z,13.63
2023-01-20T15:53:04.474Z,13.15
2023-01-20T15:55:51.743Z,12.60
2023-01-20T15:58:38.216Z,12.38
2023-01-20T16:01:28.747Z,11.77
2023-01-20T16:04:15.530Z,12.57
2023-01-20T16:07:01.918Z,11.60
2023-01-20T16:09:48.266Z,11.73
2023-01-20T16:12:34.726Z,10.85
2023-01-20T16:15:20.823Z,11.55
2023-01-20T16:18:07.135Z,11.77
2023-01-20T16:20:53.264Z,11.70
2023-01-20T16:23:39.519Z,10.88
2023-01-20T16:26:26.635Z,11.48
2023-01-20T16:29:12.951Z,11.75
2023-01-20T16:31:59.105Z,10.95
2023-01-20T16:34:45.615Z,11.15
2023-01-20T16:37:32.023Z,12.77
2023-01-20T16:40:19.951Z,12.15
2023-01-20T16:43:06.615Z,12.73
2023-01-20T16:45:55.471Z,12.98
2023-01-20T16:48:41.956Z,12.98
2023-01-20T16:51:29.554Z,13.35
2023-01-20T16:54:16.132Z,15.10
2023-01-20T16:57:02.634Z,13.07
2023-01-20T16:59:49.136Z,13.93
2023-01-20T17:02:35.485Z,13.10
2023-01-20T17:05:25.851Z,14.02
2023-01-20T17:08:11.937Z,14.20
2023-01-20T17:10:58.493Z,13.77
2023-01-20T17:13:47.651Z,13.27
2023-01-20T17:16:33.891Z,13.93
2023-01-20T17:19:21.160Z,14.30
2023-01-20T17:22:07.716Z,16.15
2023-01-20T17:24:53.907Z,15.13
2023-01-20T17:31:25.856Z,14.63
2023-01-20T17:34:12.233Z,16.65
2023-01-20T17:36:58.524Z,15.70
2023-01-20T17:39:46.049Z,12.20
2023-01-20T17:42:35.908Z,13.70
2023-01-20T17:45:22.559Z,15.75
2023-01-20T17:48:08.896Z,14.82
2023-01-20T17:50:59.290Z,12.13
2023-01-20T17:53:45.975Z,18.20
2023-01-20T17:56:32.157Z,18.15
2023-01-20T17:59:18.282Z,17.80
2023-01-20T18:02:05.727Z,20.40
2023-01-20T18:04:51.946Z,21.58
2023-01-20T18:07:39.404Z,21.73
2023-01-20T18:10:25.781Z,21.88
2023-01-20T18:13:11.986Z,22.70
2023-01-20T18:15:58.206Z,25.25
2023-01-20T18:18:45.277Z,27.50
2023-01-20T18:21:32.832Z,25.23
2023-01-20T18:24:19.331Z,24.40
2023-01-20T18:27:05.588Z,23.77
2023-01-20T18:29:51.831Z,24.85
2023-01-20T18:32:38.741Z,25.55
2023-01-20T18:35:24.874Z,25.00
2023-01-20T18:38:11.051Z,26.38
2023-01-20T18:40:57.237Z,24.92
2023-01-20T18:43:43.663Z,24.25
2023-01-20T18:46:30.190Z,22.00
2023-01-20T18:49:17.004Z,22.63
2023-01-20T18:52:12.897Z,22.25
2023-01-20T18:54:59.047Z,20.48
2023-01-20T18:57:45.239Z,20.77
2023-01-20T19:00:31.477Z,21.10
2023-01-20T19:03:17.684Z,20.63
2023-01-20T19:06:08.283Z,21.02
2023-01-20T19:08:56.577Z,21.80
2023-01-20T19:11:43.447Z,24.50
2023-01-20T19:14:29.694Z,24.05
2023-01-20T19:17:15.873Z,26.65
2023-01-20T19:20:02.097Z,24.48
2023-01-20T19:22:48.563Z,24.95
2023-01-20T19:25:34.690Z,24.50
2023-01-20T19:28:20.792Z,25.25
2023-01-20T19:31:08.158Z,23.95
2023-01-20T19:33:54.449Z,23.80
2023-01-20T19:36:40.821Z,22.15
2023-01-20T19:39:27.135Z,22.25
2023-01-20T19:42:13.568Z,22.90
2023-01-20T19:44:59.667Z,24.42
2023-01-20T19:47:45.977Z,24.58
2023-01-20T19:50:32.442Z,21.58
2023-01-20T19:53:18.975Z,20.42
2023-01-20T19:56:06.312Z,20.75
2023-01-20T19:58:53.520Z,21.20
2023-01-20T20:01:39.921Z,24.08
2023-01-20T20:04:26.477Z,17.08
2023-01-20T20:07:13.077Z,18.00
2023-01-20T20:09:59.259Z,18.60
2023-01-20T20:12:45.752Z,17.73
2023-01-20T20:15:33.070Z,19.88
2023-01-20T20:18:19.204Z,18.73
2023-01-20T20:21:06.688Z,17.67
2023-01-20T20:23:54.050Z,17.65
2023-01-20T20:26:41.194Z,17.50
2023-01-20T20:29:28.160Z,16.65
2023-01-20T20:32:14.345Z,17.45
2023-01-20T20:35:00.524Z,18.63
2023-01-20T20:37:47.594Z,17.13
2023-01-20T20:40:34.881Z,18.65
2023-01-20T20:43:24.965Z,18.52
2023-01-20T20:46:11.104Z,18.15
2023-01-20T20:49:02.052Z,18.38
2023-01-20T20:51:48.647Z,18.10
2023-01-20T20:54:35.029Z,18.92
2023-01-20T20:57:21.067Z,17.10
2023-01-20T21:00:08.186Z,19.88
2023-01-20T21:02:55.469Z,19.38
2023-01-20T21:05:46.173Z,23.25
2023-01-20T21:08:32.386Z,20.20
2023-01-20T21:11:20.467Z,18.85
2023-01-20T21:14:07.495Z,20.42
2023-01-20T21:16:53.613Z,18.15
2023-01-20T21:19:39.796Z,19.75
2023-01-20T21:22:25.907Z,19.98
2023-01-20T21:25:11.973Z,19.92
2023-01-20T21:27:58.082Z,19.33
2023-01-20T21:30:44.300Z,19.38
2023-01-20T21:33:30.352Z,18.85
2023-01-20T21:36:16.586Z,18.88
2023-01-20T21:39:03.052Z,19.45
2023-01-20T21:41:49.254Z,22.63
2023-01-20T21:44:36.574Z,23.75
2023-01-20T21:47:22.516Z,20.58
2023-01-20T21:50:29.022Z,19.75
2023-01-20T21:53:15.642Z,20.50
2023-01-20T21:56:01.804Z,22.27
2023-01-20T21:58:47.981Z,18.75
2023-01-20T22:01:34.637Z,19.30
2023-01-20T22:04:21.157Z,23.23
2023-01-20T22:07:07.524Z,23.20
2023-01-20T22:09:55.080Z,21.77
2023-01-20T22:12:42.557Z,22.88
2023-01-20T22:15:29.898Z,20.45
2023-01-20T22:18:16.548Z,24.58
2023-01-20T22:21:03.943Z,18.95
2023-01-20T22:23:50.173Z,18.45
2023-01-20T22:26:36.651Z,16.17
2023-01-20T22:29:23.625Z,16.88
2023-01-20T22:32:10.042Z,16.85
2023-01-20T22:34:56.238Z,16.23
2023-01-20T22:37:42.569Z,17.58
2023-01-20T22:40:28.739Z,17.83
2023-01-20T22:43:15.021Z,17.20
2023-01-20T22:46:02.217Z,18.23
2023-01-20T22:48:48.339Z,18.58
2023-01-20T22:51:34.743Z,19.33
2023-01-20T22:54:21.018Z,17.75
2023-01-20T22:57:06.965Z,14.38
2023-01-20T22:59:53.127Z,16.48
2023-01-20T23:02:39.482Z,16.35
2023-01-20T23:05:25.608Z,15.55
2023-01-20T23:08:11.799Z,16.75
2023-01-20T23:11:00.349Z,13.68
2023-01-20T23:13:46.969Z,14.93
2023-01-20T23:16:33.423Z,14.73
2023-01-20T23:19:19.452Z,16.13
2023-01-20T23:22:05.674Z,14.20
2023-01-20T23:24:51.928Z,14.50
2023-01-20T23:27:38.506Z,13.68
2023-01-20T23:30:24.665Z,12.48
2023-01-20T23:33:11.013Z,12.93
2023-01-20T23:35:57.096Z,12.73
2023-01-20T23:38:43.828Z,11.73
2023-01-20T23:41:29.977Z,12.52
2023-01-20T23:44:15.892Z,11.63
2023-01-20T23:47:02.301Z,12.02
2023-01-20T23:49:48.706Z,11.70
2023-01-20T23:52:34.846Z,11.60
2023-01-20T23:55:21.050Z,11.55
2023-01-20T23:58:07.049Z,10.50
